createdAt,value
2018-04-22T00:08:33.847Z,0
2018-04-22T00:18:33.882Z,0
2018-04-22T00:28:33.865Z,0
2018-04-22T00:38:33.914Z,0
2018-04-22T00:48:33.834Z,0
2018-04-22T00:58:33.941Z,0
2018-04-22T01:08:33.910Z,0
2018-04-22T01:18:33.862Z,0
2018-04-22T01:28:33.884Z,0
2018-04-22T01:38:33.974Z,0
2018-04-22T01:48:33.936Z,0
2018-04-22T01:58:33.896Z,0
2018-04-22T02:08:33.965Z,0
2018-04-22T02:18:33.939Z,0
2018-04-22T02:28:33.999Z,0
2018-04-22T02:38:33.981Z,0
2018-04-22T02:48:34.026Z,0
2018-04-22T02:58:34.007Z,0
2018-04-22T03:08:34.075Z,0
2018-04-22T03:18:34.024Z,0
2018-04-22T03:28:34.071Z,0
2018-04-22T03:38:34.023Z,0
2018-04-22T03:48:34.070Z,4
2018-04-22T03:58:34.047Z,24
2018-04-22T04:08:34.128Z,96
2018-04-22T04:18:34.071Z,244
2018-04-22T04:28:34.013Z,572
2018-04-22T04:38:34.087Z,748
2018-04-22T04:48:34.036Z,1104
2018-04-22T04:58:34.097Z,2228
2018-04-22T05:08:34.128Z,1840
2018-04-22T05:18:34.163Z,3232
2018-04-22T05:28:34.128Z,4644
2018-04-22T05:38:34.159Z,5768
2018-04-22T05:48:34.131Z,5992
2018-04-22T05:58:34.209Z,9088
2018-04-22T06:08:34.227Z,10128
2018-04-22T06:18:34.246Z,10560
2018-04-22T06:28:34.199Z,11232
2018-04-22T06:38:34.230Z,16060
2018-04-22T06:48:34.218Z,8000
2018-04-22T06:58:34.273Z,6732
2018-04-22T07:08:34.257Z,14688
2018-04-22T07:18:34.287Z,13792
2018-04-22T07:28:34.274Z,17224
2018-04-22T07:38:34.191Z,35488
2018-04-22T07:48:34.251Z,35936
2018-04-22T07:58:34.256Z,34880
2018-04-22T08:08:34.339Z,37408
2018-04-22T08:18:34.273Z,38112
2018-04-22T08:28:35.149Z,47904
2018-04-22T08:38:34.330Z,14036
2018-04-22T08:48:34.256Z,11616
2018-04-22T08:58:34.596Z,10736
2018-04-22T09:08:36.220Z,9560
2018-04-22T09:18:34.365Z,8952
2018-04-22T09:28:58.613Z,9092
2018-04-22T09:38:34.294Z,8396
2018-04-22T09:48:34.359Z,7528
2018-04-22T09:58:34.320Z,7172
2018-04-22T10:08:34.280Z,6864
2018-04-22T10:18:34.434Z,6160
2018-04-22T10:28:34.410Z,5868
2018-04-22T10:38:34.465Z,5892
2018-04-22T10:48:35.335Z,5828
2018-04-22T10:58:34.509Z,5752
2018-04-22T11:08:35.286Z,5944
2018-04-22T11:18:34.973Z,6964
2018-04-22T11:28:34.347Z,8800
2018-04-22T11:38:34.305Z,11044
2018-04-22T11:48:34.278Z,13212
2018-04-22T11:58:34.304Z,7388
2018-04-22T12:08:34.325Z,6800
2018-04-22T12:18:34.402Z,8100
2018-04-22T12:28:34.524Z,7380
2018-04-22T12:38:34.411Z,5864
2018-04-22T12:48:34.549Z,4940
2018-04-22T12:58:34.337Z,4688
2018-04-22T13:08:34.433Z,4940
2018-04-22T13:18:34.370Z,5732
2018-04-22T13:28:34.415Z,5892
2018-04-22T13:38:34.319Z,3720
2018-04-22T13:48:34.383Z,5476
2018-04-22T13:58:34.383Z,9176
2018-04-22T14:08:34.385Z,4448
2018-04-22T14:18:34.446Z,10568
2018-04-22T14:28:34.360Z,10492
2018-04-22T14:38:34.295Z,12588
2018-04-22T14:48:34.391Z,7392
2018-04-22T14:58:34.377Z,7148
2018-04-22T15:08:34.402Z,5472
2018-04-22T15:18:34.475Z,5144
2018-04-22T15:28:34.322Z,7280
2018-04-22T15:38:34.441Z,6964
2018-04-22T15:48:34.634Z,5636
2018-04-22T15:58:34.420Z,5812
2018-04-22T16:08:34.336Z,6416
2018-04-22T16:18:34.364Z,4532
2018-04-22T16:28:34.785Z,3932
2018-04-22T16:38:34.353Z,3664
2018-04-22T16:48:34.454Z,3588
2018-04-22T16:58:34.384Z,3256
2018-04-22T17:08:34.495Z,2424
2018-04-22T17:18:34.406Z,1384
2018-04-22T17:28:34.825Z,1016
2018-04-22T17:38:34.528Z,988
2018-04-22T17:48:34.440Z,736
2018-04-22T17:58:34.569Z,256
2018-04-22T18:08:34.561Z,68
2018-04-22T18:18:34.363Z,20
2018-04-22T18:28:34.592Z,12
2018-04-22T18:38:34.824Z,4
2018-04-22T18:48:35.188Z,4
2018-04-22T18:58:34.476Z,4
2018-04-22T19:08:35.401Z,0
2018-04-22T19:18:35.184Z,4
2018-04-22T19:28:34.497Z,4
2018-04-22T19:38:34.571Z,0
2018-04-22T19:48:35.534Z,0
2018-04-22T19:58:34.470Z,0
2018-04-22T20:08:35.204Z,4
2018-04-22T20:18:34.474Z,0
2018-04-22T20:28:34.468Z,0
2018-04-22T20:38:36.109Z,0
2018-04-22T20:48:34.500Z,0
2018-04-22T20:58:34.570Z,0
2018-04-22T21:08:34.628Z,0
2018-04-22T21:18:34.535Z,4
2018-04-22T21:28:34.502Z,0
2018-04-22T21:38:34.719Z,0
2018-04-22T21:48:34.478Z,0
2018-04-22T21:58:34.405Z,0
2018-04-22T22:08:34.430Z,0
2018-04-22T22:18:34.784Z,0
2018-04-22T22:35:02.512Z,0
2018-04-22T22:38:34.385Z,0
2018-04-22T22:48:34.392Z,0
2018-04-22T22:58:34.446Z,0
2018-04-22T23:08:45.683Z,0
2018-04-22T23:18:41.996Z,0
2018-04-22T23:28:41.410Z,0
2018-04-22T23:38:34.371Z,0
2018-04-22T23:48:34.477Z,0
2018-04-22T23:58:34.456Z,0
